sensor_id;sensor_type;location;lat;lon;timestamp;temperature;humidity
11700;DHT22;5906;51.660;6.674;2023-05-07T00:02:15;15.40;99.90
11700;DHT22;5906;51.660;6.674;2023-05-07T00:04:42;15.40;99.90
11700;DHT22;5906;51.660;6.674;2023-05-07T00:07:09;15.40;99.90
11700;DHT22;5906;51.660;6.674;2023-05-07T00:09:36;15.30;99.90
11700;DHT22;5906;51.660;6.674;2023-05-07T00:12:03;15.40;99.90
11700;DHT22;5906;51.660;6.674;2023-05-07T00:14:30;15.40;99.90
11700;DHT22;5906;51.660;6.674;2023-05-07T00:16:57;15.30;99.90
11700;DHT22;5906;51.660;6.674;2023-05-07T00:19:24;15.20;99.90
11700;DHT22;5906;51.660;6.674;2023-05-07T00:21:51;15.20;99.90
11700;DHT22;5906;51.660;6.674;2023-05-07T00:24:20;15.30;99.90
11700;DHT22;5906;51.660;6.674;2023-05-07T00:26:47;15.40;99.90
11700;DHT22;5906;51.660;6.674;2023-05-07T00:29:14;15.50;99.90
11700;DHT22;5906;51.660;6.674;2023-05-07T00:31:42;15.40;99.90
11700;DHT22;5906;51.660;6.674;2023-05-07T00:34:09;15.40;99.90
11700;DHT22;5906;51.660;6.674;2023-05-07T00:36:36;15.40;99.90
11700;DHT22;5906;51.660;6.674;2023-05-07T00:39:03;15.30;99.90
11700;DHT22;5906;51.660;6.674;2023-05-07T00:41:30;15.30;99.90
11700;DHT22;5906;51.660;6.674;2023-05-07T00:43:58;15.30;99.90
11700;DHT22;5906;51.660;6.674;2023-05-07T00:46:25;15.30;99.90
11700;DHT22;5906;51.660;6.674;2023-05-07T00:48:53;15.30;99.90
11700;DHT22;5906;51.660;6.674;2023-05-07T00:51:23;15.10;99.90
11700;DHT22;5906;51.660;6.674;2023-05-07T00:53:50;15.10;99.90
11700;DHT22;5906;51.660;6.674;2023-05-07T00:56:17;15.00;99.90
11700;DHT22;5906;51.660;6.674;2023-05-07T00:58:44;15.00;99.90
11700;DHT22;5906;51.660;6.674;2023-05-07T01:01:11;14.90;99.90
11700;DHT22;5906;51.660;6.674;2023-05-07T01:03:38;15.00;99.90
11700;DHT22;5906;51.660;6.674;2023-05-07T01:06:06;14.90;99.90
11700;DHT22;5906;51.660;6.674;2023-05-07T01:08:35;14.90;99.90
11700;DHT22;5906;51.660;6.674;2023-05-07T01:11:03;14.90;99.90
11700;DHT22;5906;51.660;6.674;2023-05-07T01:13:30;14.90;99.90
11700;DHT22;5906;51.660;6.674;2023-05-07T01:15:57;14.90;99.90
11700;DHT22;5906;51.660;6.674;2023-05-07T01:18:24;14.90;99.90
11700;DHT22;5906;51.660;6.674;2023-05-07T01:20:52;14.90;99.90
11700;DHT22;5906;51.660;6.674;2023-05-07T01:23:19;15.00;99.90
11700;DHT22;5906;51.660;6.674;2023-05-07T01:25:53;15.00;99.90
11700;DHT22;5906;51.660;6.674;2023-05-07T01:28:20;14.90;99.90
11700;DHT22;5906;51.660;6.674;2023-05-07T01:30:51;14.90;99.90
11700;DHT22;5906;51.660;6.674;2023-05-07T01:33:21;14.90;99.90
11700;DHT22;5906;51.660;6.674;2023-05-07T01:35:52;14.80;99.90
11700;DHT22;5906;51.660;6.674;2023-05-07T01:38:21;14.80;99.90
11700;DHT22;5906;51.660;6.674;2023-05-07T01:40:48;14.80;99.90
11700;DHT22;5906;51.660;6.674;2023-05-07T01:43:16;14.80;99.90
11700;DHT22;5906;51.660;6.674;2023-05-07T01:45:43;14.80;99.90
11700;DHT22;5906;51.660;6.674;2023-05-07T01:48:11;14.90;99.90
11700;DHT22;5906;51.660;6.674;2023-05-07T01:50:39;14.90;99.90
11700;DHT22;5906;51.660;6.674;2023-05-07T01:53:07;14.90;99.90
11700;DHT22;5906;51.660;6.674;2023-05-07T01:55:34;14.80;99.90
11700;DHT22;5906;51.660;6.674;2023-05-07T01:58:04;14.80;99.90
11700;DHT22;5906;51.660;6.674;2023-05-07T02:00:31;14.70;99.90
11700;DHT22;5906;51.660;6.674;2023-05-07T02:02:58;14.70;99.90
11700;DHT22;5906;51.660;6.674;2023-05-07T02:05:26;14.70;99.90
11700;DHT22;5906;51.660;6.674;2023-05-07T02:07:52;14.70;99.90
11700;DHT22;5906;51.660;6.674;2023-05-07T02:10:19;14.80;99.90
11700;DHT22;5906;51.660;6.674;2023-05-07T02:12:46;14.80;99.90
11700;DHT22;5906;51.660;6.674;2023-05-07T02:15:13;14.80;99.90
11700;DHT22;5906;51.660;6.674;2023-05-07T02:18:01;14.80;99.90
11700;DHT22;5906;51.660;6.674;2023-05-07T02:20:29;14.70;99.90
11700;DHT22;5906;51.660;6.674;2023-05-07T02:22:56;14.70;99.90
11700;DHT22;5906;51.660;6.674;2023-05-07T02:25:23;14.80;99.90
11700;DHT22;5906;51.660;6.674;2023-05-07T02:27:50;14.80;99.90
11700;DHT22;5906;51.660;6.674;2023-05-07T02:30:17;14.80;99.90
11700;DHT22;5906;51.660;6.674;2023-05-07T02:32:43;14.80;99.90
11700;DHT22;5906;51.660;6.674;2023-05-07T02:35:11;14.70;99.90
11700;DHT22;5906;51.660;6.674;2023-05-07T02:37:38;14.70;99.90
11700;DHT22;5906;51.660;6.674;2023-05-07T02:40:06;14.80;99.90
11700;DHT22;5906;51.660;6.674;2023-05-07T02:42:33;14.70;99.90
11700;DHT22;5906;51.660;6.674;2023-05-07T02:45:00;14.60;99.90
11700;DHT22;5906;51.660;6.674;2023-05-07T02:47:27;14.70;99.90
11700;DHT22;5906;51.660;6.674;2023-05-07T02:49:55;14.70;99.90
11700;DHT22;5906;51.660;6.674;2023-05-07T02:52:22;14.80;99.90
11700;DHT22;5906;51.660;6.674;2023-05-07T02:54:49;14.70;99.90
11700;DHT22;5906;51.660;6.674;2023-05-07T02:57:16;14.70;99.90
11700;DHT22;5906;51.660;6.674;2023-05-07T02:59:43;14.80;99.90
11700;DHT22;5906;51.660;6.674;2023-05-07T03:02:10;14.70;99.90
11700;DHT22;5906;51.660;6.674;2023-05-07T03:04:38;14.80;99.90
11700;DHT22;5906;51.660;6.674;2023-05-07T03:07:05;14.70;99.90
11700;DHT22;5906;51.660;6.674;2023-05-07T03:09:32;14.60;99.90
11700;DHT22;5906;51.660;6.674;2023-05-07T03:11:59;14.60;99.90
11700;DHT22;5906;51.660;6.674;2023-05-07T03:14:26;14.50;99.90
11700;DHT22;5906;51.660;6.674;2023-05-07T03:16:54;14.50;99.90
11700;DHT22;5906;51.660;6.674;2023-05-07T03:19:21;14.60;99.90
11700;DHT22;5906;51.660;6.674;2023-05-07T03:21:48;14.60;99.90
11700;DHT22;5906;51.660;6.674;2023-05-07T03:24:15;14.60;99.90
11700;DHT22;5906;51.660;6.674;2023-05-07T03:26:42;14.50;99.90
11700;DHT22;5906;51.660;6.674;2023-05-07T03:29:09;14.60;99.90
11700;DHT22;5906;51.660;6.674;2023-05-07T03:31:36;14.60;99.90
11700;DHT22;5906;51.660;6.674;2023-05-07T03:34:03;14.50;99.90
11700;DHT22;5906;51.660;6.674;2023-05-07T03:36:30;14.60;99.90
11700;DHT22;5906;51.660;6.674;2023-05-07T03:38:58;14.60;99.90
11700;DHT22;5906;51.660;6.674;2023-05-07T03:41:25;14.60;99.90
11700;DHT22;5906;51.660;6.674;2023-05-07T03:43:52;14.50;99.90
11700;DHT22;5906;51.660;6.674;2023-05-07T03:46:20;14.60;99.90
11700;DHT22;5906;51.660;6.674;2023-05-07T03:48:47;14.60;99.90
11700;DHT22;5906;51.660;6.674;2023-05-07T03:51:14;14.60;99.90
11700;DHT22;5906;51.660;6.674;2023-05-07T03:53:41;14.50;99.90
11700;DHT22;5906;51.660;6.674;2023-05-07T03:56:08;14.60;99.90
11700;DHT22;5906;51.660;6.674;2023-05-07T03:58:35;14.50;99.90
11700;DHT22;5906;51.660;6.674;2023-05-07T04:01:02;14.40;99.90
11700;DHT22;5906;51.660;6.674;2023-05-07T04:03:29;14.40;99.90
11700;DHT22;5906;51.660;6.674;2023-05-07T04:05:56;14.40;99.90
11700;DHT22;5906;51.660;6.674;2023-05-07T04:08:23;14.40;99.90
11700;DHT22;5906;51.660;6.674;2023-05-07T04:10:57;14.40;99.90
11700;DHT22;5906;51.660;6.674;2023-05-07T04:13:25;14.40;99.90
11700;DHT22;5906;51.660;6.674;2023-05-07T04:15:53;14.40;99.90
11700;DHT22;5906;51.660;6.674;2023-05-07T04:18:20;14.40;99.90
11700;DHT22;5906;51.660;6.674;2023-05-07T04:20:48;14.30;99.90
11700;DHT22;5906;51.660;6.674;2023-05-07T04:23:18;14.40;99.90
11700;DHT22;5906;51.660;6.674;2023-05-07T04:25:45;14.40;99.90
11700;DHT22;5906;51.660;6.674;2023-05-07T04:28:12;14.50;99.90
11700;DHT22;5906;51.660;6.674;2023-05-07T04:30:39;14.50;99.90
11700;DHT22;5906;51.660;6.674;2023-05-07T04:33:06;14.40;99.90
11700;DHT22;5906;51.660;6.674;2023-05-07T04:35:33;14.40;99.90
11700;DHT22;5906;51.660;6.674;2023-05-07T04:38:00;14.40;99.90
11700;DHT22;5906;51.660;6.674;2023-05-07T04:40:28;14.40;99.90
11700;DHT22;5906;51.660;6.674;2023-05-07T04:42:55;14.40;99.90
11700;DHT22;5906;51.660;6.674;2023-05-07T04:45:22;14.40;99.90
11700;DHT22;5906;51.660;6.674;2023-05-07T04:47:49;14.40;99.90
11700;DHT22;5906;51.660;6.674;2023-05-07T04:50:16;14.50;99.90
11700;DHT22;5906;51.660;6.674;2023-05-07T04:52:46;14.60;99.90
11700;DHT22;5906;51.660;6.674;2023-05-07T04:55:13;14.60;99.90
11700;DHT22;5906;51.660;6.674;2023-05-07T04:57:39;14.60;99.90
11700;DHT22;5906;51.660;6.674;2023-05-07T05:00:08;14.60;99.90
11700;DHT22;5906;51.660;6.674;2023-05-07T05:02:36;14.60;99.90
11700;DHT22;5906;51.660;6.674;2023-05-07T05:05:03;14.50;99.90
11700;DHT22;5906;51.660;6.674;2023-05-07T05:07:30;14.50;99.90
11700;DHT22;5906;51.660;6.674;2023-05-07T05:09:56;14.50;99.90
11700;DHT22;5906;51.660;6.674;2023-05-07T05:12:24;14.60;99.90
11700;DHT22;5906;51.660;6.674;2023-05-07T05:14:51;14.60;99.90
11700;DHT22;5906;51.660;6.674;2023-05-07T05:17:18;14.60;99.90
11700;DHT22;5906;51.660;6.674;2023-05-07T05:19:45;14.60;99.90
11700;DHT22;5906;51.660;6.674;2023-05-07T05:22:12;14.70;99.90
11700;DHT22;5906;51.660;6.674;2023-05-07T05:24:39;14.60;99.90
11700;DHT22;5906;51.660;6.674;2023-05-07T05:27:06;14.70;99.90
11700;DHT22;5906;51.660;6.674;2023-05-07T05:29:33;14.90;99.90
11700;DHT22;5906;51.660;6.674;2023-05-07T05:32:00;14.90;99.90
11700;DHT22;5906;51.660;6.674;2023-05-07T05:34:27;14.90;99.90
11700;DHT22;5906;51.660;6.674;2023-05-07T05:36:54;14.90;99.90
11700;DHT22;5906;51.660;6.674;2023-05-07T05:39:22;15.00;99.90
11700;DHT22;5906;51.660;6.674;2023-05-07T05:41:49;15.00;99.90
11700;DHT22;5906;51.660;6.674;2023-05-07T05:44:16;15.10;99.90
11700;DHT22;5906;51.660;6.674;2023-05-07T05:46:43;15.10;99.90
11700;DHT22;5906;51.660;6.674;2023-05-07T05:49:10;15.20;99.90
11700;DHT22;5906;51.660;6.674;2023-05-07T05:51:37;15.20;99.90
11700;DHT22;5906;51.660;6.674;2023-05-07T05:54:04;15.20;99.90
11700;DHT22;5906;51.660;6.674;2023-05-07T05:56:31;15.20;99.90
11700;DHT22;5906;51.660;6.674;2023-05-07T05:58:58;15.30;99.90
11700;DHT22;5906;51.660;6.674;2023-05-07T06:01:25;15.40;99.90
11700;DHT22;5906;51.660;6.674;2023-05-07T06:03:52;15.40;99.90
11700;DHT22;5906;51.660;6.674;2023-05-07T06:06:19;15.50;99.90
11700;DHT22;5906;51.660;6.674;2023-05-07T06:08:46;15.50;99.90
11700;DHT22;5906;51.660;6.674;2023-05-07T06:11:13;15.60;99.90
11700;DHT22;5906;51.660;6.674;2023-05-07T06:13:40;15.70;99.90
11700;DHT22;5906;51.660;6.674;2023-05-07T06:16:07;15.80;99.90
11700;DHT22;5906;51.660;6.674;2023-05-07T06:18:34;15.90;99.90
11700;DHT22;5906;51.660;6.674;2023-05-07T06:21:02;16.00;99.90
11700;DHT22;5906;51.660;6.674;2023-05-07T06:23:30;16.00;99.90
11700;DHT22;5906;51.660;6.674;2023-05-07T06:25:56;16.10;99.90
11700;DHT22;5906;51.660;6.674;2023-05-07T06:28:23;16.20;99.90
11700;DHT22;5906;51.660;6.674;2023-05-07T06:30:50;16.30;99.90
11700;DHT22;5906;51.660;6.674;2023-05-07T06:33:17;16.30;99.90
11700;DHT22;5906;51.660;6.674;2023-05-07T06:35:46;16.50;99.90
11700;DHT22;5906;51.660;6.674;2023-05-07T06:38:13;16.60;99.90
11700;DHT22;5906;51.660;6.674;2023-05-07T06:40:40;16.60;99.90
11700;DHT22;5906;51.660;6.674;2023-05-07T06:43:07;16.70;99.90
11700;DHT22;5906;51.660;6.674;2023-05-07T06:45:34;16.60;99.90
11700;DHT22;5906;51.660;6.674;2023-05-07T06:48:01;16.80;99.90
11700;DHT22;5906;51.660;6.674;2023-05-07T06:50:28;16.80;99.90
11700;DHT22;5906;51.660;6.674;2023-05-07T06:52:54;16.80;99.90
11700;DHT22;5906;51.660;6.674;2023-05-07T06:55:21;16.80;99.90
11700;DHT22;5906;51.660;6.674;2023-05-07T06:57:48;16.90;99.90
11700;DHT22;5906;51.660;6.674;2023-05-07T07:00:15;16.90;99.90
11700;DHT22;5906;51.660;6.674;2023-05-07T07:02:42;17.00;99.90
11700;DHT22;5906;51.660;6.674;2023-05-07T07:05:10;17.10;99.90
11700;DHT22;5906;51.660;6.674;2023-05-07T07:07:37;17.10;99.90
11700;DHT22;5906;51.660;6.674;2023-05-07T07:10:04;17.30;99.90
11700;DHT22;5906;51.660;6.674;2023-05-07T07:12:32;17.60;99.90
11700;DHT22;5906;51.660;6.674;2023-05-07T07:14:58;17.70;99.90
11700;DHT22;5906;51.660;6.674;2023-05-07T07:17:26;17.70;99.90
11700;DHT22;5906;51.660;6.674;2023-05-07T07:19:53;17.80;99.90
11700;DHT22;5906;51.660;6.674;2023-05-07T07:22:19;18.00;99.90
11700;DHT22;5906;51.660;6.674;2023-05-07T07:24:47;18.00;99.90
11700;DHT22;5906;51.660;6.674;2023-05-07T07:27:13;18.10;99.90
11700;DHT22;5906;51.660;6.674;2023-05-07T07:29:40;18.10;99.90
11700;DHT22;5906;51.660;6.674;2023-05-07T07:32:08;18.30;99.90
11700;DHT22;5906;51.660;6.674;2023-05-07T07:34:35;18.30;99.90
11700;DHT22;5906;51.660;6.674;2023-05-07T07:37:02;18.50;99.90
11700;DHT22;5906;51.660;6.674;2023-05-07T07:39:35;18.50;99.90
11700;DHT22;5906;51.660;6.674;2023-05-07T07:42:04;18.60;99.90
11700;DHT22;5906;51.660;6.674;2023-05-07T07:44:31;18.70;99.90
11700;DHT22;5906;51.660;6.674;2023-05-07T07:46:58;18.70;99.90
11700;DHT22;5906;51.660;6.674;2023-05-07T07:49:26;18.80;99.90
11700;DHT22;5906;51.660;6.674;2023-05-07T07:51:53;18.90;99.90
11700;DHT22;5906;51.660;6.674;2023-05-07T07:54:20;19.00;99.90
11700;DHT22;5906;51.660;6.674;2023-05-07T07:56:47;19.10;99.90
11700;DHT22;5906;51.660;6.674;2023-05-07T07:59:14;19.30;99.90
11700;DHT22;5906;51.660;6.674;2023-05-07T08:01:44;19.30;99.90
11700;DHT22;5906;51.660;6.674;2023-05-07T08:04:11;19.50;99.90
11700;DHT22;5906;51.660;6.674;2023-05-07T08:06:38;19.60;99.90
11700;DHT22;5906;51.660;6.674;2023-05-07T08:09:05;19.80;99.90
11700;DHT22;5906;51.660;6.674;2023-05-07T08:11:32;19.90;99.90
11700;DHT22;5906;51.660;6.674;2023-05-07T08:14:00;20.10;99.90
11700;DHT22;5906;51.660;6.674;2023-05-07T08:16:27;20.10;99.90
11700;DHT22;5906;51.660;6.674;2023-05-07T08:18:56;20.00;99.90
11700;DHT22;5906;51.660;6.674;2023-05-07T08:21:23;20.10;99.90
11700;DHT22;5906;51.660;6.674;2023-05-07T08:23:50;20.30;99.90
11700;DHT22;5906;51.660;6.674;2023-05-07T08:26:17;20.30;99.90
11700;DHT22;5906;51.660;6.674;2023-05-07T08:28:44;20.50;99.90
11700;DHT22;5906;51.660;6.674;2023-05-07T08:31:11;20.70;99.90
11700;DHT22;5906;51.660;6.674;2023-05-07T08:33:38;20.90;99.90
11700;DHT22;5906;51.660;6.674;2023-05-07T08:36:05;21.10;99.90
11700;DHT22;5906;51.660;6.674;2023-05-07T08:38:32;21.10;99.90
11700;DHT22;5906;51.660;6.674;2023-05-07T08:40:59;21.10;99.90
11700;DHT22;5906;51.660;6.674;2023-05-07T08:43:27;21.00;99.90
11700;DHT22;5906;51.660;6.674;2023-05-07T08:45:55;21.00;99.90
11700;DHT22;5906;51.660;6.674;2023-05-07T08:48:25;20.90;99.90
11700;DHT22;5906;51.660;6.674;2023-05-07T08:50:54;20.80;99.90
11700;DHT22;5906;51.660;6.674;2023-05-07T08:53:22;21.00;99.90
11700;DHT22;5906;51.660;6.674;2023-05-07T08:55:49;21.10;99.90
11700;DHT22;5906;51.660;6.674;2023-05-07T08:58:16;21.10;99.90
11700;DHT22;5906;51.660;6.674;2023-05-07T09:00:42;21.20;99.90
11700;DHT22;5906;51.660;6.674;2023-05-07T09:03:10;21.20;99.90
11700;DHT22;5906;51.660;6.674;2023-05-07T09:05:39;21.10;99.90
11700;DHT22;5906;51.660;6.674;2023-05-07T09:08:07;21.20;99.90
11700;DHT22;5906;51.660;6.674;2023-05-07T09:10:35;21.10;99.90
11700;DHT22;5906;51.660;6.674;2023-05-07T09:13:03;21.10;99.90
11700;DHT22;5906;51.660;6.674;2023-05-07T09:15:30;21.10;99.90
11700;DHT22;5906;51.660;6.674;2023-05-07T09:18:01;21.10;99.90
11700;DHT22;5906;51.660;6.674;2023-05-07T09:20:30;21.10;99.90
11700;DHT22;5906;51.660;6.674;2023-05-07T09:22:58;21.30;99.90
11700;DHT22;5906;51.660;6.674;2023-05-07T09:25:32;21.50;99.90
11700;DHT22;5906;51.660;6.674;2023-05-07T09:28:00;21.70;99.90
11700;DHT22;5906;51.660;6.674;2023-05-07T09:30:31;21.90;99.90
11700;DHT22;5906;51.660;6.674;2023-05-07T09:32:59;22.10;99.90
11700;DHT22;5906;51.660;6.674;2023-05-07T09:35:27;22.20;99.90
11700;DHT22;5906;51.660;6.674;2023-05-07T09:37:55;22.40;99.90
11700;DHT22;5906;51.660;6.674;2023-05-07T09:40:25;22.60;99.90
11700;DHT22;5906;51.660;6.674;2023-05-07T09:42:53;22.80;99.90
11700;DHT22;5906;51.660;6.674;2023-05-07T09:45:28;22.80;99.90
11700;DHT22;5906;51.660;6.674;2023-05-07T09:47:56;22.80;99.90
11700;DHT22;5906;51.660;6.674;2023-05-07T09:50:27;22.90;99.90
11700;DHT22;5906;51.660;6.674;2023-05-07T09:52:56;23.00;99.90
11700;DHT22;5906;51.660;6.674;2023-05-07T09:55:23;23.20;99.90
11700;DHT22;5906;51.660;6.674;2023-05-07T09:57:52;23.30;99.90
11700;DHT22;5906;51.660;6.674;2023-05-07T10:00:20;23.40;99.90
11700;DHT22;5906;51.660;6.674;2023-05-07T10:02:49;23.50;99.90
11700;DHT22;5906;51.660;6.674;2023-05-07T10:05:19;23.50;99.90
11700;DHT22;5906;51.660;6.674;2023-05-07T10:07:53;23.70;98.80
11700;DHT22;5906;51.660;6.674;2023-05-07T10:10:20;23.70;95.60
11700;DHT22;5906;51.660;6.674;2023-05-07T10:12:47;23.40;94.30
11700;DHT22;5906;51.660;6.674;2023-05-07T10:15:15;23.30;94.90
11700;DHT22;5906;51.660;6.674;2023-05-07T10:17:42;23.30;99.20
11700;DHT22;5906;51.660;6.674;2023-05-07T10:20:09;23.50;96.20
11700;DHT22;5906;51.660;6.674;2023-05-07T10:22:43;23.70;95.70
11700;DHT22;5906;51.660;6.674;2023-05-07T10:25:28;23.80;91.70
11700;DHT22;5906;51.660;6.674;2023-05-07T10:27:58;23.90;93.10
11700;DHT22;5906;51.660;6.674;2023-05-07T10:33:17;24.40;87.80
11700;DHT22;5906;51.660;6.674;2023-05-07T10:35:47;24.20;86.80
11700;DHT22;5906;51.660;6.674;2023-05-07T10:38:15;24.20;92.50
11700;DHT22;5906;51.660;6.674;2023-05-07T10:40:43;24.30;90.20
11700;DHT22;5906;51.660;6.674;2023-05-07T10:43:13;24.40;91.40
11700;DHT22;5906;51.660;6.674;2023-05-07T10:45:41;24.50;87.30
11700;DHT22;5906;51.660;6.674;2023-05-07T10:48:15;24.50;79.30
11700;DHT22;5906;51.660;6.674;2023-05-07T10:51:18;24.70;83.10
11700;DHT22;5906;51.660;6.674;2023-05-07T10:53:46;24.60;82.00
11700;DHT22;5906;51.660;6.674;2023-05-07T10:58:45;24.30;77.70
11700;DHT22;5906;51.660;6.674;2023-05-07T11:01:12;24.20;79.40
11700;DHT22;5906;51.660;6.674;2023-05-07T11:04:15;24.10;81.20
11700;DHT22;5906;51.660;6.674;2023-05-07T11:09:58;24.40;84.40
11700;DHT22;5906;51.660;6.674;2023-05-07T11:15:12;24.70;69.60
11700;DHT22;5906;51.660;6.674;2023-05-07T11:17:54;24.90;76.00
11700;DHT22;5906;51.660;6.674;2023-05-07T11:26:08;25.10;59.10
11700;DHT22;5906;51.660;6.674;2023-05-07T11:28:40;25.10;56.50
11700;DHT22;5906;51.660;6.674;2023-05-07T11:31:07;25.20;64.30
11700;DHT22;5906;51.660;6.674;2023-05-07T11:33:35;25.30;64.40
11700;DHT22;5906;51.660;6.674;2023-05-07T11:36:04;25.30;65.00
11700;DHT22;5906;51.660;6.674;2023-05-07T11:38:35;25.30;60.60
11700;DHT22;5906;51.660;6.674;2023-05-07T11:41:03;25.10;53.30
11700;DHT22;5906;51.660;6.674;2023-05-07T11:43:34;25.10;54.70
11700;DHT22;5906;51.660;6.674;2023-05-07T11:46:09;25.10;66.70
11700;DHT22;5906;51.660;6.674;2023-05-07T11:48:38;25.20;58.20
11700;DHT22;5906;51.660;6.674;2023-05-07T11:51:06;25.10;55.50
11700;DHT22;5906;51.660;6.674;2023-05-07T11:53:40;25.30;53.60
11700;DHT22;5906;51.660;6.674;2023-05-07T11:56:12;25.50;53.60
11700;DHT22;5906;51.660;6.674;2023-05-07T11:58:40;25.10;59.40
11700;DHT22;5906;51.660;6.674;2023-05-07T12:01:09;25.30;57.40
11700;DHT22;5906;51.660;6.674;2023-05-07T12:03:37;25.40;56.40
11700;DHT22;5906;51.660;6.674;2023-05-07T12:06:08;25.20;61.50
11700;DHT22;5906;51.660;6.674;2023-05-07T12:08:40;25.00;65.20
11700;DHT22;5906;51.660;6.674;2023-05-07T12:11:09;24.90;65.80
11700;DHT22;5906;51.660;6.674;2023-05-07T12:13:38;24.90;62.60
11700;DHT22;5906;51.660;6.674;2023-05-07T12:16:06;24.90;62.40
11700;DHT22;5906;51.660;6.674;2023-05-07T12:18:34;25.00;67.90
11700;DHT22;5906;51.660;6.674;2023-05-07T12:21:02;25.30;60.10
11700;DHT22;5906;51.660;6.674;2023-05-07T12:23:31;25.40;62.80
11700;DHT22;5906;51.660;6.674;2023-05-07T12:25:59;25.80;63.50
11700;DHT22;5906;51.660;6.674;2023-05-07T12:28:26;25.80;55.30
11700;DHT22;5906;51.660;6.674;2023-05-07T12:30:53;26.00;57.00
11700;DHT22;5906;51.660;6.674;2023-05-07T12:33:25;26.00;54.20
11700;DHT22;5906;51.660;6.674;2023-05-07T12:35:54;26.00;56.20
11700;DHT22;5906;51.660;6.674;2023-05-07T12:38:22;26.10;56.40
11700;DHT22;5906;51.660;6.674;2023-05-07T12:40:50;26.20;53.60
11700;DHT22;5906;51.660;6.674;2023-05-07T12:43:25;25.90;51.60
11700;DHT22;5906;51.660;6.674;2023-05-07T12:45:54;25.80;54.40
11700;DHT22;5906;51.660;6.674;2023-05-07T12:48:22;25.60;55.60
11700;DHT22;5906;51.660;6.674;2023-05-07T12:50:51;25.40;55.90
11700;DHT22;5906;51.660;6.674;2023-05-07T12:53:20;25.10;54.90
11700;DHT22;5906;51.660;6.674;2023-05-07T12:55:52;24.90;55.00
11700;DHT22;5906;51.660;6.674;2023-05-07T12:58:22;24.80;57.80
11700;DHT22;5906;51.660;6.674;2023-05-07T13:00:50;24.60;61.60
11700;DHT22;5906;51.660;6.674;2023-05-07T13:03:22;24.60;61.60
11700;DHT22;5906;51.660;6.674;2023-05-07T13:05:51;24.60;59.50
11700;DHT22;5906;51.660;6.674;2023-05-07T13:08:28;24.50;61.60
11700;DHT22;5906;51.660;6.674;2023-05-07T13:10:57;24.50;67.20
11700;DHT22;5906;51.660;6.674;2023-05-07T13:13:24;24.50;65.90
11700;DHT22;5906;51.660;6.674;2023-05-07T13:15:52;24.60;66.60
11700;DHT22;5906;51.660;6.674;2023-05-07T13:18:18;24.50;63.20
11700;DHT22;5906;51.660;6.674;2023-05-07T13:20:46;24.30;66.30
11700;DHT22;5906;51.660;6.674;2023-05-07T13:23:12;24.10;68.00
11700;DHT22;5906;51.660;6.674;2023-05-07T13:25:39;24.00;72.40
11700;DHT22;5906;51.660;6.674;2023-05-07T13:28:06;23.90;76.30
11700;DHT22;5906;51.660;6.674;2023-05-07T13:30:37;24.00;79.20
11700;DHT22;5906;51.660;6.674;2023-05-07T13:33:04;24.00;71.10
11700;DHT22;5906;51.660;6.674;2023-05-07T13:35:31;23.90;76.50
11700;DHT22;5906;51.660;6.674;2023-05-07T13:37:58;23.80;80.20
11700;DHT22;5906;51.660;6.674;2023-05-07T13:40:25;23.80;76.70
11700;DHT22;5906;51.660;6.674;2023-05-07T13:42:52;23.80;80.10
11700;DHT22;5906;51.660;6.674;2023-05-07T13:45:19;23.70;76.40
11700;DHT22;5906;51.660;6.674;2023-05-07T13:47:47;23.60;80.70
11700;DHT22;5906;51.660;6.674;2023-05-07T13:50:15;23.50;81.30
11700;DHT22;5906;51.660;6.674;2023-05-07T13:52:43;23.50;83.10
11700;DHT22;5906;51.660;6.674;2023-05-07T13:55:18;23.60;85.50
11700;DHT22;5906;51.660;6.674;2023-05-07T13:57:46;23.60;85.10
11700;DHT22;5906;51.660;6.674;2023-05-07T14:00:13;23.60;88.70
11700;DHT22;5906;51.660;6.674;2023-05-07T14:02:41;23.70;82.20
11700;DHT22;5906;51.660;6.674;2023-05-07T14:05:08;23.60;85.20
11700;DHT22;5906;51.660;6.674;2023-05-07T14:07:36;23.30;87.20
11700;DHT22;5906;51.660;6.674;2023-05-07T14:10:04;23.20;86.50
11700;DHT22;5906;51.660;6.674;2023-05-07T14:12:32;23.30;89.70
11700;DHT22;5906;51.660;6.674;2023-05-07T14:14:59;23.40;87.50
11700;DHT22;5906;51.660;6.674;2023-05-07T14:17:26;23.40;85.20
11700;DHT22;5906;51.660;6.674;2023-05-07T14:19:54;23.30;87.10
11700;DHT22;5906;51.660;6.674;2023-05-07T14:22:22;23.20;89.70
11700;DHT22;5906;51.660;6.674;2023-05-07T14:24:50;23.40;87.90
11700;DHT22;5906;51.660;6.674;2023-05-07T14:27:31;23.20;90.30
11700;DHT22;5906;51.660;6.674;2023-05-07T14:29:58;23.00;88.30
11700;DHT22;5906;51.660;6.674;2023-05-07T14:32:26;23.00;90.00
11700;DHT22;5906;51.660;6.674;2023-05-07T14:34:52;23.00;86.40
11700;DHT22;5906;51.660;6.674;2023-05-07T14:37:20;23.10;90.10
11700;DHT22;5906;51.660;6.674;2023-05-07T14:39:47;22.90;91.30
11700;DHT22;5906;51.660;6.674;2023-05-07T14:42:17;22.80;92.10
11700;DHT22;5906;51.660;6.674;2023-05-07T14:44:44;22.60;93.40
11700;DHT22;5906;51.660;6.674;2023-05-07T14:47:12;22.70;95.20
11700;DHT22;5906;51.660;6.674;2023-05-07T14:49:39;22.70;92.80
11700;DHT22;5906;51.660;6.674;2023-05-07T14:52:08;22.70;94.20
11700;DHT22;5906;51.660;6.674;2023-05-07T14:54:37;22.70;94.80
11700;DHT22;5906;51.660;6.674;2023-05-07T14:57:06;22.70;95.20
11700;DHT22;5906;51.660;6.674;2023-05-07T14:59:33;22.80;95.00
11700;DHT22;5906;51.660;6.674;2023-05-07T15:02:01;22.90;95.90
11700;DHT22;5906;51.660;6.674;2023-05-07T15:04:32;22.70;96.20
11700;DHT22;5906;51.660;6.674;2023-05-07T15:06:59;22.70;96.20
11700;DHT22;5906;51.660;6.674;2023-05-07T15:09:27;22.70;96.60
11700;DHT22;5906;51.660;6.674;2023-05-07T15:11:54;22.70;96.90
11700;DHT22;5906;51.660;6.674;2023-05-07T15:14:21;22.60;97.50
11700;DHT22;5906;51.660;6.674;2023-05-07T15:16:49;22.60;97.00
11700;DHT22;5906;51.660;6.674;2023-05-07T15:19:16;22.50;98.50
11700;DHT22;5906;51.660;6.674;2023-05-07T15:21:44;22.50;98.10
11700;DHT22;5906;51.660;6.674;2023-05-07T15:24:10;22.50;98.40
11700;DHT22;5906;51.660;6.674;2023-05-07T15:26:37;22.50;97.90
11700;DHT22;5906;51.660;6.674;2023-05-07T15:29:04;22.60;98.50
11700;DHT22;5906;51.660;6.674;2023-05-07T15:31:37;22.60;98.00
11700;DHT22;5906;51.660;6.674;2023-05-07T15:34:06;22.50;99.90
11700;DHT22;5906;51.660;6.674;2023-05-07T15:36:33;22.60;98.00
11700;DHT22;5906;51.660;6.674;2023-05-07T15:39:00;22.60;99.10
11700;DHT22;5906;51.660;6.674;2023-05-07T15:41:29;22.60;99.90
11700;DHT22;5906;51.660;6.674;2023-05-07T15:43:56;22.50;99.60
11700;DHT22;5906;51.660;6.674;2023-05-07T15:46:25;22.40;99.90
11700;DHT22;5906;51.660;6.674;2023-05-07T15:48:53;22.50;99.90
11700;DHT22;5906;51.660;6.674;2023-05-07T15:51:20;22.50;99.90
11700;DHT22;5906;51.660;6.674;2023-05-07T15:53:48;22.30;99.90
11700;DHT22;5906;51.660;6.674;2023-05-07T15:56:16;22.20;99.90
11700;DHT22;5906;51.660;6.674;2023-05-07T15:58:42;22.10;99.90
11700;DHT22;5906;51.660;6.674;2023-05-07T16:01:09;22.00;99.90
11700;DHT22;5906;51.660;6.674;2023-05-07T16:03:37;21.90;99.90
11700;DHT22;5906;51.660;6.674;2023-05-07T16:06:06;21.80;99.90
11700;DHT22;5906;51.660;6.674;2023-05-07T16:08:33;21.60;99.90